sensor_id;sensor_type;location;lat;lon;timestamp;temperature;humidity
18593;DHT22;9426;54.118;17.948;2024-01-15T00:03:50;0.40;99.90
18593;DHT22;9426;54.118;17.948;2024-01-15T00:09:15;0.30;99.90
18593;DHT22;9426;54.118;17.948;2024-01-15T00:14:40;0.30;99.90
18593;DHT22;9426;54.118;17.948;2024-01-15T00:20:05;0.30;99.90
18593;DHT22;9426;54.118;17.948;2024-01-15T00:25:31;0.30;99.90
18593;DHT22;9426;54.118;17.948;2024-01-15T00:30:55;0.30;99.90
18593;DHT22;9426;54.118;17.948;2024-01-15T00:36:18;0.20;99.90
18593;DHT22;9426;54.118;17.948;2024-01-15T00:41:44;0.30;99.90
18593;DHT22;9426;54.118;17.948;2024-01-15T00:47:08;0.20;99.90
18593;DHT22;9426;54.118;17.948;2024-01-15T00:52:32;0.20;99.90
18593;DHT22;9426;54.118;17.948;2024-01-15T00:57:58;0.20;99.90
18593;DHT22;9426;54.118;17.948;2024-01-15T01:03:21;0.30;99.90
18593;DHT22;9426;54.118;17.948;2024-01-15T01:08:46;0.30;99.90
18593;DHT22;9426;54.118;17.948;2024-01-15T01:14:11;0.30;99.90
18593;DHT22;9426;54.118;17.948;2024-01-15T01:19:35;0.20;99.90
18593;DHT22;9426;54.118;17.948;2024-01-15T01:24:58;0.20;99.90
18593;DHT22;9426;54.118;17.948;2024-01-15T01:30:24;0.20;99.90
18593;DHT22;9426;54.118;17.948;2024-01-15T01:35:48;0.30;99.90
18593;DHT22;9426;54.118;17.948;2024-01-15T01:41:12;0.30;99.90
18593;DHT22;9426;54.118;17.948;2024-01-15T01:46:38;0.30;99.90
18593;DHT22;9426;54.118;17.948;2024-01-15T01:52:04;0.30;99.90
18593;DHT22;9426;54.118;17.948;2024-01-15T01:57:29;0.30;99.90
18593;DHT22;9426;54.118;17.948;2024-01-15T02:02:56;0.20;99.90
18593;DHT22;9426;54.118;17.948;2024-01-15T02:08:20;0.20;99.90
18593;DHT22;9426;54.118;17.948;2024-01-15T02:13:45;0.20;99.90
18593;DHT22;9426;54.118;17.948;2024-01-15T02:19:15;0.20;99.90
18593;DHT22;9426;54.118;17.948;2024-01-15T02:24:41;0.30;99.90
18593;DHT22;9426;54.118;17.948;2024-01-15T02:30:06;0.20;99.90
18593;DHT22;9426;54.118;17.948;2024-01-15T02:35:31;0.10;99.90
18593;DHT22;9426;54.118;17.948;2024-01-15T02:40:57;0.10;99.90
18593;DHT22;9426;54.118;17.948;2024-01-15T02:46:20;0.20;99.90
18593;DHT22;9426;54.118;17.948;2024-01-15T02:51:44;0.20;99.90
18593;DHT22;9426;54.118;17.948;2024-01-15T02:57:10;0.20;99.90
18593;DHT22;9426;54.118;17.948;2024-01-15T03:02:38;0.20;99.90
18593;DHT22;9426;54.118;17.948;2024-01-15T03:08:04;0.20;99.90
18593;DHT22;9426;54.118;17.948;2024-01-15T03:13:30;0.20;99.90
18593;DHT22;9426;54.118;17.948;2024-01-15T03:18:53;0.20;99.90
18593;DHT22;9426;54.118;17.948;2024-01-15T03:24:17;0.10;99.90
18593;DHT22;9426;54.118;17.948;2024-01-15T03:29:42;0.20;99.90
18593;DHT22;9426;54.118;17.948;2024-01-15T03:35:07;0.20;99.90
18593;DHT22;9426;54.118;17.948;2024-01-15T03:40:31;0.10;99.90
18593;DHT22;9426;54.118;17.948;2024-01-15T03:45:57;0.10;99.90
18593;DHT22;9426;54.118;17.948;2024-01-15T03:51:22;0.10;99.90
18593;DHT22;9426;54.118;17.948;2024-01-15T03:56:46;0.10;99.90
18593;DHT22;9426;54.118;17.948;2024-01-15T04:02:12;0.10;99.90
18593;DHT22;9426;54.118;17.948;2024-01-15T04:07:36;0.10;99.90
18593;DHT22;9426;54.118;17.948;2024-01-15T04:13:01;0.10;99.90
18593;DHT22;9426;54.118;17.948;2024-01-15T04:18:27;0.10;99.90
18593;DHT22;9426;54.118;17.948;2024-01-15T04:23:51;0.20;99.90
18593;DHT22;9426;54.118;17.948;2024-01-15T04:29:15;0.10;99.90
18593;DHT22;9426;54.118;17.948;2024-01-15T04:34:41;0.10;99.90
18593;DHT22;9426;54.118;17.948;2024-01-15T04:40:05;0.10;99.90
18593;DHT22;9426;54.118;17.948;2024-01-15T04:45:30;0.20;99.90
18593;DHT22;9426;54.118;17.948;2024-01-15T04:50:55;0.20;99.90
18593;DHT22;9426;54.118;17.948;2024-01-15T04:56:19;0.20;99.90
18593;DHT22;9426;54.118;17.948;2024-01-15T05:01:43;0.10;99.90
18593;DHT22;9426;54.118;17.948;2024-01-15T05:07:08;0.20;99.90
18593;DHT22;9426;54.118;17.948;2024-01-15T05:12:32;0.10;99.90
18593;DHT22;9426;54.118;17.948;2024-01-15T05:17:56;-0.20;99.90
18593;DHT22;9426;54.118;17.948;2024-01-15T05:23:21;-0.30;99.90
18593;DHT22;9426;54.118;17.948;2024-01-15T05:28:46;-0.40;99.90
18593;DHT22;9426;54.118;17.948;2024-01-15T05:34:10;-0.40;99.90
18593;DHT22;9426;54.118;17.948;2024-01-15T05:39:38;-0.40;99.90
18593;DHT22;9426;54.118;17.948;2024-01-15T05:45:05;-0.40;99.90
18593;DHT22;9426;54.118;17.948;2024-01-15T05:50:31;-0.40;99.90
18593;DHT22;9426;54.118;17.948;2024-01-15T05:55:59;-0.50;99.90
18593;DHT22;9426;54.118;17.948;2024-01-15T06:01:27;-0.50;99.90
18593;DHT22;9426;54.118;17.948;2024-01-15T06:06:54;-0.40;99.90
18593;DHT22;9426;54.118;17.948;2024-01-15T06:12:21;-0.40;99.90
18593;DHT22;9426;54.118;17.948;2024-01-15T06:17:45;-0.40;99.90
18593;DHT22;9426;54.118;17.948;2024-01-15T06:23:10;-0.30;99.90
18593;DHT22;9426;54.118;17.948;2024-01-15T06:28:35;-0.30;99.90
18593;DHT22;9426;54.118;17.948;2024-01-15T06:33:59;-0.30;99.90
18593;DHT22;9426;54.118;17.948;2024-01-15T06:39:23;-0.30;99.90
18593;DHT22;9426;54.118;17.948;2024-01-15T06:44:49;-0.40;99.90
18593;DHT22;9426;54.118;17.948;2024-01-15T06:50:13;-0.30;99.90
18593;DHT22;9426;54.118;17.948;2024-01-15T06:55:38;-0.30;99.90
18593;DHT22;9426;54.118;17.948;2024-01-15T07:01:06;-0.30;99.90
18593;DHT22;9426;54.118;17.948;2024-01-15T07:06:30;-0.40;99.90
18593;DHT22;9426;54.118;17.948;2024-01-15T07:11:54;-0.40;99.90
18593;DHT22;9426;54.118;17.948;2024-01-15T07:17:21;-0.40;99.90
18593;DHT22;9426;54.118;17.948;2024-01-15T07:22:45;-0.30;99.90
18593;DHT22;9426;54.118;17.948;2024-01-15T07:28:08;-0.40;99.90
18593;DHT22;9426;54.118;17.948;2024-01-15T07:33:34;-0.40;99.90
18593;DHT22;9426;54.118;17.948;2024-01-15T07:38:58;-0.40;99.90
18593;DHT22;9426;54.118;17.948;2024-01-15T07:44:22;-0.40;99.90
18593;DHT22;9426;54.118;17.948;2024-01-15T07:49:48;-0.20;99.90
18593;DHT22;9426;54.118;17.948;2024-01-15T07:55:11;-0.20;99.90
18593;DHT22;9426;54.118;17.948;2024-01-15T08:00:36;-0.20;99.90
18593;DHT22;9426;54.118;17.948;2024-01-15T08:06:02;-0.10;99.90
18593;DHT22;9426;54.118;17.948;2024-01-15T08:11:26;0.00;99.90
18593;DHT22;9426;54.118;17.948;2024-01-15T08:16:51;-0.10;99.90
18593;DHT22;9426;54.118;17.948;2024-01-15T08:22:16;0.00;99.90
18593;DHT22;9426;54.118;17.948;2024-01-15T08:27:41;0.00;99.90
18593;DHT22;9426;54.118;17.948;2024-01-15T08:33:06;0.00;99.90
18593;DHT22;9426;54.118;17.948;2024-01-15T08:38:33;0.10;99.90
18593;DHT22;9426;54.118;17.948;2024-01-15T08:43:57;0.10;99.90
18593;DHT22;9426;54.118;17.948;2024-01-15T08:49:21;0.00;99.90
18593;DHT22;9426;54.118;17.948;2024-01-15T08:54:46;0.00;99.90
18593;DHT22;9426;54.118;17.948;2024-01-15T09:00:12;-0.20;99.90
18593;DHT22;9426;54.118;17.948;2024-01-15T09:05:36;-0.20;99.90
18593;DHT22;9426;54.118;17.948;2024-01-15T09:11:02;-0.40;99.90
18593;DHT22;9426;54.118;17.948;2024-01-15T09:16:26;-0.30;99.90
18593;DHT22;9426;54.118;17.948;2024-01-15T09:21:51;-0.20;99.90
18593;DHT22;9426;54.118;17.948;2024-01-15T09:27:16;0.00;99.90
18593;DHT22;9426;54.118;17.948;2024-01-15T09:32:40;0.20;99.90
18593;DHT22;9426;54.118;17.948;2024-01-15T09:38:04;0.10;99.90
18593;DHT22;9426;54.118;17.948;2024-01-15T09:43:30;0.10;99.90
18593;DHT22;9426;54.118;17.948;2024-01-15T09:48:54;0.20;99.90
18593;DHT22;9426;54.118;17.948;2024-01-15T09:54:18;0.10;99.90
18593;DHT22;9426;54.118;17.948;2024-01-15T09:59:45;0.10;99.90
18593;DHT22;9426;54.118;17.948;2024-01-15T10:05:09;0.10;99.90
18593;DHT22;9426;54.118;17.948;2024-01-15T10:10:35;0.10;99.90
18593;DHT22;9426;54.118;17.948;2024-01-15T10:16:02;0.10;99.90
18593;DHT22;9426;54.118;17.948;2024-01-15T10:21:26;0.20;99.90
18593;DHT22;9426;54.118;17.948;2024-01-15T10:26:50;0.20;99.90
18593;DHT22;9426;54.118;17.948;2024-01-15T10:32:15;0.20;99.90
18593;DHT22;9426;54.118;17.948;2024-01-15T10:37:41;0.20;99.90
18593;DHT22;9426;54.118;17.948;2024-01-15T10:43:05;0.10;99.90
18593;DHT22;9426;54.118;17.948;2024-01-15T10:48:33;0.10;99.90
18593;DHT22;9426;54.118;17.948;2024-01-15T10:53:59;0.00;99.90
18593;DHT22;9426;54.118;17.948;2024-01-15T10:59:24;0.10;99.90
18593;DHT22;9426;54.118;17.948;2024-01-15T11:04:50;0.40;99.90
18593;DHT22;9426;54.118;17.948;2024-01-15T11:10:38;0.20;99.90
18593;DHT22;9426;54.118;17.948;2024-01-15T11:16:03;0.20;99.90
18593;DHT22;9426;54.118;17.948;2024-01-15T11:21:29;0.20;99.90
18593;DHT22;9426;54.118;17.948;2024-01-15T11:26:53;0.00;99.90
18593;DHT22;9426;54.118;17.948;2024-01-15T11:32:19;0.00;99.90
18593;DHT22;9426;54.118;17.948;2024-01-15T11:37:58;0.00;99.90
18593;DHT22;9426;54.118;17.948;2024-01-15T11:43:23;0.10;99.90
18593;DHT22;9426;54.118;17.948;2024-01-15T11:48:51;0.00;99.90
18593;DHT22;9426;54.118;17.948;2024-01-15T11:54:21;-0.10;99.90
18593;DHT22;9426;54.118;17.948;2024-01-15T11:59:46;-0.30;99.90
18593;DHT22;9426;54.118;17.948;2024-01-15T12:05:12;-0.30;99.90
18593;DHT22;9426;54.118;17.948;2024-01-15T12:10:38;-0.40;99.90
18593;DHT22;9426;54.118;17.948;2024-01-15T12:16:03;-0.40;99.90
18593;DHT22;9426;54.118;17.948;2024-01-15T12:21:27;-0.40;99.90
18593;DHT22;9426;54.118;17.948;2024-01-15T12:26:53;-0.40;99.90
18593;DHT22;9426;54.118;17.948;2024-01-15T12:32:16;-0.50;99.90
18593;DHT22;9426;54.118;17.948;2024-01-15T12:37:43;-0.50;99.90
18593;DHT22;9426;54.118;17.948;2024-01-15T12:43:10;-0.60;99.90
18593;DHT22;9426;54.118;17.948;2024-01-15T12:48:35;-0.70;99.90
18593;DHT22;9426;54.118;17.948;2024-01-15T12:53:59;-0.70;99.90
18593;DHT22;9426;54.118;17.948;2024-01-15T12:59:24;-0.90;99.90
18593;DHT22;9426;54.118;17.948;2024-01-15T13:04:48;-0.90;99.90
18593;DHT22;9426;54.118;17.948;2024-01-15T13:10:12;-0.90;99.90
18593;DHT22;9426;54.118;17.948;2024-01-15T13:15:37;-0.90;99.90
18593;DHT22;9426;54.118;17.948;2024-01-15T13:21:01;-0.90;99.90
18593;DHT22;9426;54.118;17.948;2024-01-15T13:26:25;-1.00;99.90
18593;DHT22;9426;54.118;17.948;2024-01-15T13:31:50;-1.00;99.90
18593;DHT22;9426;54.118;17.948;2024-01-15T13:37:14;-0.90;99.90
18593;DHT22;9426;54.118;17.948;2024-01-15T13:42:38;-0.90;99.90
18593;DHT22;9426;54.118;17.948;2024-01-15T13:48:03;-0.90;99.90
18593;DHT22;9426;54.118;17.948;2024-01-15T13:53:27;-0.90;99.90
18593;DHT22;9426;54.118;17.948;2024-01-15T13:58:51;-0.90;99.90
18593;DHT22;9426;54.118;17.948;2024-01-15T14:04:16;-1.10;99.90
18593;DHT22;9426;54.118;17.948;2024-01-15T14:09:40;-1.20;99.90
18593;DHT22;9426;54.118;17.948;2024-01-15T14:15:05;-1.30;99.90
18593;DHT22;9426;54.118;17.948;2024-01-15T14:20:30;-1.40;99.90
18593;DHT22;9426;54.118;17.948;2024-01-15T14:25:55;-1.50;99.90
18593;DHT22;9426;54.118;17.948;2024-01-15T14:31:20;-1.60;99.90
18593;DHT22;9426;54.118;17.948;2024-01-15T14:36:45;-1.60;99.90
18593;DHT22;9426;54.118;17.948;2024-01-15T14:42:09;-1.70;99.90
18593;DHT22;9426;54.118;17.948;2024-01-15T14:47:33;-1.70;99.90
18593;DHT22;9426;54.118;17.948;2024-01-15T14:52:58;-1.70;99.90
18593;DHT22;9426;54.118;17.948;2024-01-15T14:58:22;-1.70;99.90
18593;DHT22;9426;54.118;17.948;2024-01-15T15:03:46;-1.70;99.90
18593;DHT22;9426;54.118;17.948;2024-01-15T15:09:11;-1.60;99.90
18593;DHT22;9426;54.118;17.948;2024-01-15T15:14:35;-1.60;99.90
18593;DHT22;9426;54.118;17.948;2024-01-15T15:20:05;-1.60;99.90
18593;DHT22;9426;54.118;17.948;2024-01-15T15:25:30;-1.70;99.90
18593;DHT22;9426;54.118;17.948;2024-01-15T15:30:56;-1.70;99.90
18593;DHT22;9426;54.118;17.948;2024-01-15T15:36:21;-1.70;99.90
18593;DHT22;9426;54.118;17.948;2024-01-15T15:41:47;-1.80;99.90
18593;DHT22;9426;54.118;17.948;2024-01-15T15:47:12;-1.70;99.90
18593;DHT22;9426;54.118;17.948;2024-01-15T15:52:36;-1.70;99.90
18593;DHT22;9426;54.118;17.948;2024-01-15T15:58:01;-1.70;99.90
18593;DHT22;9426;54.118;17.948;2024-01-15T16:03:26;-1.60;99.90
18593;DHT22;9426;54.118;17.948;2024-01-15T16:08:50;-1.60;99.90
18593;DHT22;9426;54.118;17.948;2024-01-15T16:14:15;-1.60;99.90
18593;DHT22;9426;54.118;17.948;2024-01-15T16:19:40;-1.60;99.90
18593;DHT22;9426;54.118;17.948;2024-01-15T16:25:24;-1.50;99.90
18593;DHT22;9426;54.118;17.948;2024-01-15T16:30:51;-1.50;99.90
18593;DHT22;9426;54.118;17.948;2024-01-15T16:36:16;-1.50;99.90
18593;DHT22;9426;54.118;17.948;2024-01-15T16:41:42;-1.50;99.90
18593;DHT22;9426;54.118;17.948;2024-01-15T16:47:08;-1.60;99.90
18593;DHT22;9426;54.118;17.948;2024-01-15T16:52:31;-1.60;99.90
18593;DHT22;9426;54.118;17.948;2024-01-15T16:57:56;-1.60;99.90
18593;DHT22;9426;54.118;17.948;2024-01-15T17:03:23;-1.80;99.90
18593;DHT22;9426;54.118;17.948;2024-01-15T17:08:49;-1.90;99.90
18593;DHT22;9426;54.118;17.948;2024-01-15T17:14:14;-1.90;99.90
18593;DHT22;9426;54.118;17.948;2024-01-15T17:19:41;-2.00;99.90
18593;DHT22;9426;54.118;17.948;2024-01-15T17:25:06;-1.40;99.90
18593;DHT22;9426;54.118;17.948;2024-01-15T17:30:30;-2.20;99.90
18593;DHT22;9426;54.118;17.948;2024-01-15T17:35:57;-2.20;99.90
18593;DHT22;9426;54.118;17.948;2024-01-15T17:41:21;-2.20;99.90
18593;DHT22;9426;54.118;17.948;2024-01-15T17:46:46;-2.30;99.90
18593;DHT22;9426;54.118;17.948;2024-01-15T17:52:11;-2.30;99.90
18593;DHT22;9426;54.118;17.948;2024-01-15T17:57:35;-2.40;99.90
18593;DHT22;9426;54.118;17.948;2024-01-15T18:02:59;-2.50;99.90
18593;DHT22;9426;54.118;17.948;2024-01-15T18:08:24;-2.70;99.90
18593;DHT22;9426;54.118;17.948;2024-01-15T18:13:50;-2.80;99.90
18593;DHT22;9426;54.118;17.948;2024-01-15T18:19:14;-2.90;99.90
18593;DHT22;9426;54.118;17.948;2024-01-15T18:24:40;-2.90;99.90
18593;DHT22;9426;54.118;17.948;2024-01-15T18:30:06;-2.90;99.90
18593;DHT22;9426;54.118;17.948;2024-01-15T18:35:31;-3.00;99.90
18593;DHT22;9426;54.118;17.948;2024-01-15T18:40:57;-3.00;99.90
18593;DHT22;9426;54.118;17.948;2024-01-15T18:46:23;-3.20;99.90
18593;DHT22;9426;54.118;17.948;2024-01-15T18:51:46;-3.20;99.90
18593;DHT22;9426;54.118;17.948;2024-01-15T18:57:15;-3.20;99.90
18593;DHT22;9426;54.118;17.948;2024-01-15T19:02:39;-3.30;99.90
18593;DHT22;9426;54.118;17.948;2024-01-15T19:08:04;-3.40;99.90
18593;DHT22;9426;54.118;17.948;2024-01-15T19:13:29;-3.40;99.90
18593;DHT22;9426;54.118;17.948;2024-01-15T19:18:54;-3.50;99.90
18593;DHT22;9426;54.118;17.948;2024-01-15T19:24:18;-3.50;99.90
18593;DHT22;9426;54.118;17.948;2024-01-15T19:29:44;-3.50;99.90
18593;DHT22;9426;54.118;17.948;2024-01-15T19:35:10;-3.60;99.90
18593;DHT22;9426;54.118;17.948;2024-01-15T19:40:34;-3.70;99.90
18593;DHT22;9426;54.118;17.948;2024-01-15T19:46:00;-3.60;99.90
18593;DHT22;9426;54.118;17.948;2024-01-15T19:51:24;-3.60;99.90
18593;DHT22;9426;54.118;17.948;2024-01-15T19:56:48;-3.60;99.90
18593;DHT22;9426;54.118;17.948;2024-01-15T20:02:13;-3.60;99.90
18593;DHT22;9426;54.118;17.948;2024-01-15T20:07:37;-3.60;99.90
18593;DHT22;9426;54.118;17.948;2024-01-15T20:13:02;-3.50;99.90
18593;DHT22;9426;54.118;17.948;2024-01-15T20:18:27;-3.50;99.90
18593;DHT22;9426;54.118;17.948;2024-01-15T20:23:52;-3.50;99.90
18593;DHT22;9426;54.118;17.948;2024-01-15T20:29:16;-3.50;99.90
18593;DHT22;9426;54.118;17.948;2024-01-15T20:34:41;-3.60;99.90
18593;DHT22;9426;54.118;17.948;2024-01-15T20:40:06;-3.60;99.90
18593;DHT22;9426;54.118;17.948;2024-01-15T20:45:31;-3.60;99.90
18593;DHT22;9426;54.118;17.948;2024-01-15T20:50:56;-3.60;99.90
18593;DHT22;9426;54.118;17.948;2024-01-15T20:56:21;-3.60;99.90
18593;DHT22;9426;54.118;17.948;2024-01-15T21:01:46;-3.70;99.90
18593;DHT22;9426;54.118;17.948;2024-01-15T21:07:11;-3.70;99.90
18593;DHT22;9426;54.118;17.948;2024-01-15T21:12:35;-3.60;99.90
18593;DHT22;9426;54.118;17.948;2024-01-15T21:17:59;-3.70;99.90
18593;DHT22;9426;54.118;17.948;2024-01-15T21:23:24;-3.70;99.90
18593;DHT22;9426;54.118;17.948;2024-01-15T21:28:49;-3.70;99.90
18593;DHT22;9426;54.118;17.948;2024-01-15T21:34:13;-3.70;99.90
18593;DHT22;9426;54.118;17.948;2024-01-15T21:39:38;-3.80;99.90
18593;DHT22;9426;54.118;17.948;2024-01-15T21:45:06;-3.80;99.90
18593;DHT22;9426;54.118;17.948;2024-01-15T21:50:30;-3.80;99.90
18593;DHT22;9426;54.118;17.948;2024-01-15T21:55:58;-3.80;99.90
18593;DHT22;9426;54.118;17.948;2024-01-15T22:01:23;-3.80;99.90
18593;DHT22;9426;54.118;17.948;2024-01-15T22:06:47;-3.90;99.90
18593;DHT22;9426;54.118;17.948;2024-01-15T22:12:13;-3.90;99.90
18593;DHT22;9426;54.118;17.948;2024-01-15T22:17:37;-4.00;99.90
18593;DHT22;9426;54.118;17.948;2024-01-15T22:23:02;-4.00;99.90
18593;DHT22;9426;54.118;17.948;2024-01-15T22:28:27;-4.00;99.90
18593;DHT22;9426;54.118;17.948;2024-01-15T22:33:51;-4.10;99.90
18593;DHT22;9426;54.118;17.948;2024-01-15T22:39:15;-4.20;99.90
18593;DHT22;9426;54.118;17.948;2024-01-15T22:44:41;-4.30;99.90
18593;DHT22;9426;54.118;17.948;2024-01-15T22:50:06;-4.40;99.90
18593;DHT22;9426;54.118;17.948;2024-01-15T22:55:29;-4.40;99.90
18593;DHT22;9426;54.118;17.948;2024-01-15T23:00:55;-4.50;99.90
18593;DHT22;9426;54.118;17.948;2024-01-15T23:06:21;-4.60;99.90
18593;DHT22;9426;54.118;17.948;2024-01-15T23:11:46;-4.80;99.90
18593;DHT22;9426;54.118;17.948;2024-01-15T23:17:11;-4.80;99.90
18593;DHT22;9426;54.118;17.948;2024-01-15T23:22:36;-4.90;99.90
18593;DHT22;9426;54.118;17.948;2024-01-15T23:28:02;-4.90;99.90
18593;DHT22;9426;54.118;17.948;2024-01-15T23:33:27;-4.90;99.90
18593;DHT22;9426;54.118;17.948;2024-01-15T23:38:52;-4.90;99.90
18593;DHT22;9426;54.118;17.948;2024-01-15T23:44:16;-4.90;99.90
18593;DHT22;9426;54.118;17.948;2024-01-15T23:49:42;-5.00;99.90
18593;DHT22;9426;54.118;17.948;2024-01-15T23:55:06;-5.00;99.90
